Time,TemperatureF,DewpointF,PressureIn,WindDirection,WindDirectionDegrees,WindSpeedMPH,WindSpeedGustMPH,Humidity,HourlyPrecipIn,Conditions,Clouds,dailyrainin,SoftwareType,DateUTC
2013-07-10 00:01:00,72.5,71.0,29.85,NNE,22,0.0,0.0,95,0.00,,,0.02,VWS V14.01,2013-07-10 04:01:00,
2013-07-10 00:16:00,72.4,70.9,29.84,NNE,25,0.0,3.0,95,0.00,,,0.00,VWS V14.01,2013-07-10 04:16:00,
2013-07-10 00:31:00,72.3,70.8,29.84,NNE,24,0.0,3.0,95,0.00,,,0.00,VWS V14.01,2013-07-10 04:31:00,
2013-07-10 00:46:00,72.2,70.7,29.84,SSW,211,0.0,4.0,95,0.00,,,0.00,VWS V14.01,2013-07-10 04:46:00,
2013-07-10 01:01:00,72.1,70.6,29.84,South,175,0.0,4.0,95,0.00,,,0.00,VWS V14.01,2013-07-10 05:01:00,
2013-07-10 01:16:00,71.9,70.4,29.83,South,179,0.0,2.0,95,0.00,,,0.00,VWS V14.01,2013-07-10 05:16:00,
2013-07-10 01:31:00,71.8,70.3,29.83,SSW,198,0.0,5.0,95,0.00,,,0.00,VWS V14.01,2013-07-10 05:31:00,
2013-07-10 01:46:00,71.7,70.2,29.83,South,182,0.0,3.0,95,0.00,,,0.00,VWS V14.01,2013-07-10 05:46:00,
2013-07-10 02:01:00,71.6,70.1,29.82,SSW,199,1.0,4.0,95,0.00,,,0.00,VWS V14.01,2013-07-10 06:01:00,
2013-07-10 02:16:00,71.5,70.0,29.82,South,188,2.0,6.0,95,0.00,,,0.00,VWS V14.01,2013-07-10 06:16:00,
2013-07-10 02:31:00,71.4,69.9,29.81,South,182,0.0,5.0,95,0.00,,,0.00,VWS V14.01,2013-07-10 06:31:00,
2013-07-10 02:46:00,71.3,69.8,29.81,SSW,192,0.0,3.0,95,0.00,,,0.00,VWS V14.01,2013-07-10 06:46:00,
2013-07-10 03:01:00,71.2,69.7,29.79,SSW,206,0.0,5.0,95,0.00,,,0.00,VWS V14.01,2013-07-10 07:01:00,
2013-07-10 03:16:00,71.1,69.9,29.80,South,175,0.0,4.0,96,0.00,,,0.00,VWS V14.01,2013-07-10 07:16:00,
2013-07-10 03:31:00,71.0,69.8,29.79,SSW,198,0.0,4.0,96,0.00,,,0.00,VWS V14.01,2013-07-10 07:31:00,
2013-07-10 03:46:00,70.8,69.6,29.79,SSW,194,2.0,5.0,96,0.00,,,0.00,VWS V14.01,2013-07-10 07:46:00,
2013-07-10 04:01:00,70.7,69.5,29.80,SSW,209,0.0,5.0,96,0.00,,,0.00,VWS V14.01,2013-07-10 08:01:00,
2013-07-10 04:16:00,71.1,69.9,29.79,South,185,0.0,9.0,96,0.00,,,0.00,VWS V14.01,2013-07-10 08:16:00,
2013-07-10 04:31:00,71.2,70.0,29.79,SSW,198,0.0,4.0,96,0.00,,,0.00,VWS V14.01,2013-07-10 08:31:00,
2013-07-10 04:46:00,71.3,69.8,29.79,SSW,203,2.0,3.0,95,0.00,,,0.00,VWS V14.01,2013-07-10 08:46:00,
2013-07-10 05:01:00,71.3,69.8,29.79,South,179,0.0,5.0,95,0.00,,,0.00,VWS V14.01,2013-07-10 09:01:00,
2013-07-10 05:16:00,71.3,69.8,29.78,SSW,195,0.0,6.0,95,0.00,,,0.00,VWS V14.01,2013-07-10 09:16:00,
2013-07-10 05:31:00,71.6,70.1,29.78,South,171,3.0,6.0,95,0.00,,,0.00,VWS V14.01,2013-07-10 09:31:00,
2013-07-10 05:46:00,71.9,70.4,29.78,South,187,0.0,4.0,95,0.00,,,0.00,VWS V14.01,2013-07-10 09:46:00,
2013-07-10 06:01:00,72.1,70.6,29.78,SSW,192,0.0,5.0,95,0.00,,,0.00,VWS V14.01,2013-07-10 10:01:00,
2013-07-10 06:16:00,72.1,70.3,29.78,SSW,205,0.0,4.0,94,0.00,,,0.00,VWS V14.01,2013-07-10 10:16:00,
2013-07-10 06:31:00,72.1,70.6,29.78,South,177,4.0,4.0,95,0.00,,,0.00,VWS V14.01,2013-07-10 10:31:00,
2013-07-10 06:46:00,72.3,70.8,29.78,SW,222,2.0,6.0,95,0.00,,,0.00,VWS V14.01,2013-07-10 10:46:00,
2013-07-10 07:01:00,72.7,71.2,29.78,SW,217,3.0,7.0,95,0.00,,,0.00,VWS V14.01,2013-07-10 11:01:00,
2013-07-10 07:16:00,73.0,71.2,29.78,SSW,211,0.0,6.0,94,0.00,,,0.00,VWS V14.01,2013-07-10 11:16:00,
2013-07-10 07:31:00,73.4,71.3,29.77,SSW,196,0.0,6.0,93,0.00,,,0.00,VWS V14.01,2013-07-10 11:31:00,
2013-07-10 07:46:00,74.3,71.8,29.77,SSW,196,1.0,10.0,92,0.00,,,0.00,VWS V14.01,2013-07-10 11:46:00,
2013-07-10 08:01:00,74.7,71.6,29.77,SSW,213,0.0,9.0,90,0.00,,,0.00,VWS V14.01,2013-07-10 12:01:00,
2013-07-10 08:16:00,75.2,71.4,29.77,SSW,212,0.0,12.0,88,0.00,,,0.00,VWS V14.01,2013-07-10 12:16:00,
2013-07-10 08:31:00,75.4,71.6,29.77,SW,226,1.0,7.0,88,0.00,,,0.00,VWS V14.01,2013-07-10 12:31:00,
2013-07-10 08:46:00,75.7,71.6,29.77,SSW,200,3.0,12.0,87,0.00,,,0.00,VWS V14.01,2013-07-10 12:46:00,
2013-07-10 09:01:00,76.4,72.2,29.76,SW,219,3.0,7.0,87,0.00,,,0.00,VWS V14.01,2013-07-10 13:01:00,
2013-07-10 09:16:00,76.7,71.9,29.77,South,173,2.0,12.0,85,0.00,,,0.00,VWS V14.01,2013-07-10 13:16:00,
2013-07-10 09:31:00,77.0,72.2,29.77,SSW,193,0.0,7.0,85,0.00,,,0.00,VWS V14.01,2013-07-10 13:31:00,
2013-07-10 09:46:00,76.9,71.7,29.76,SW,221,0.0,8.0,84,0.00,,,0.00,VWS V14.01,2013-07-10 13:46:00,
2013-07-10 10:01:00,77.1,71.9,29.76,SSW,213,0.0,8.0,84,0.00,,,0.00,VWS V14.01,2013-07-10 14:01:00,
2013-07-10 10:16:00,77.7,72.1,29.75,NW,317,2.0,7.0,83,0.00,,,0.00,VWS V14.01,2013-07-10 14:16:00,
2013-07-10 10:31:00,78.3,72.7,29.75,SW,229,0.0,5.0,83,0.00,,,0.00,VWS V14.01,2013-07-10 14:31:00,
2013-07-10 10:46:00,78.5,71.8,29.76,South,191,0.0,7.0,80,0.00,,,0.00,VWS V14.01,2013-07-10 14:46:00,
2013-07-10 11:01:00,78.3,72.0,29.76,NE,43,0.0,9.0,81,0.00,,,0.00,VWS V14.01,2013-07-10 15:01:00,
2013-07-10 11:16:00,79.0,72.3,29.75,WSW,245,3.0,11.0,80,0.00,,,0.00,VWS V14.01,2013-07-10 15:16:00,
2013-07-10 11:31:00,80.6,72.7,29.75,SSW,211,3.0,16.0,77,0.00,,,0.00,VWS V14.01,2013-07-10 15:31:00,
2013-07-10 11:46:00,81.5,73.2,29.74,WSW,241,0.0,12.0,76,0.00,,,0.00,VWS V14.01,2013-07-10 15:46:00,
2013-07-10 12:01:00,82.5,73.8,29.74,South,174,1.0,12.0,75,0.00,,,0.00,VWS V14.01,2013-07-10 16:01:00,
2013-07-10 12:16:00,82.6,73.9,29.74,WSW,240,2.0,11.0,75,0.00,,,0.00,VWS V14.01,2013-07-10 16:16:00,
2013-07-10 12:31:00,83.2,75.2,29.73,SSW,194,6.0,14.0,77,0.00,,,0.00,VWS V14.01,2013-07-10 16:31:00,
2013-07-10 12:46:00,82.9,73.8,29.73,North,11,1.0,14.0,74,0.00,,,0.00,VWS V14.01,2013-07-10 16:46:00,
2013-07-10 13:01:00,84.1,74.9,29.73,WSW,249,10.0,14.0,74,0.00,,,0.00,VWS V14.01,2013-07-10 17:01:00,
2013-07-10 13:16:00,83.9,74.7,29.73,South,185,3.0,12.0,74,0.00,,,0.00,VWS V14.01,2013-07-10 17:16:00,
2013-07-10 13:31:00,83.5,73.9,29.72,SW,236,0.0,14.0,73,0.00,,,0.00,VWS V14.01,2013-07-10 17:31:00,
2013-07-10 13:46:00,84.1,74.9,29.72,SW,223,4.0,12.0,74,0.00,,,0.00,VWS V14.01,2013-07-10 17:46:00,
2013-07-10 14:01:00,84.9,75.3,29.71,SSW,198,4.0,12.0,73,0.00,,,0.00,VWS V14.01,2013-07-10 18:01:00,
2013-07-10 14:16:00,85.0,74.6,29.71,South,176,4.0,11.0,71,0.00,,,0.00,VWS V14.01,2013-07-10 18:16:00,
2013-07-10 14:31:00,84.7,74.7,29.72,SW,232,1.0,12.0,72,0.00,,,0.00,VWS V14.01,2013-07-10 18:31:00,
2013-07-10 14:46:00,84.7,75.5,29.71,WNW,287,5.0,12.0,74,0.00,,,0.00,VWS V14.01,2013-07-10 18:46:00,
2013-07-10 15:01:00,84.8,75.6,29.70,WNW,295,2.0,12.0,74,0.00,,,0.00,VWS V14.01,2013-07-10 19:01:00,
2013-07-10 15:16:00,84.8,76.4,29.70,South,175,0.0,12.0,76,0.00,,,0.00,VWS V14.01,2013-07-10 19:16:00,
2013-07-10 15:31:00,84.5,75.3,29.69,WNW,283,3.0,11.0,74,0.00,,,0.00,VWS V14.01,2013-07-10 19:31:00,
2013-07-10 15:46:00,83.9,75.5,29.69,WNW,286,0.0,14.0,76,0.00,,,0.00,VWS V14.01,2013-07-10 19:46:00,
2013-07-10 16:01:00,85.7,75.6,29.68,West,262,1.0,8.0,72,0.00,,,0.00,VWS V14.01,2013-07-10 20:01:00,
2013-07-10 16:16:00,85.5,74.2,29.68,SW,229,6.0,12.0,69,0.00,,,0.00,VWS V14.01,2013-07-10 20:16:00,
2013-07-10 16:31:00,84.1,73.7,29.68,West,275,1.0,11.0,71,0.00,,,0.00,VWS V14.01,2013-07-10 20:31:00,
2013-07-10 16:46:00,84.0,74.0,29.68,WSW,240,1.0,11.0,72,0.00,,,0.00,VWS V14.01,2013-07-10 20:46:00,
2013-07-10 17:01:00,84.7,73.8,29.67,SW,230,5.0,11.0,70,0.00,,,0.00,VWS V14.01,2013-07-10 21:01:00,
2013-07-10 17:16:00,84.7,73.4,29.67,WNW,290,3.0,6.0,69,0.00,,,0.00,VWS V14.01,2013-07-10 21:16:00,
2013-07-10 17:31:00,84.3,73.5,29.68,SE,136,4.0,6.0,70,0.00,,,0.00,VWS V14.01,2013-07-10 21:31:00,
2013-07-10 17:46:00,83.5,73.1,29.68,SW,226,0.0,10.0,71,0.00,,,0.00,VWS V14.01,2013-07-10 21:46:00,
2013-07-10 18:01:00,82.7,73.2,29.69,WSW,240,1.0,5.0,73,0.00,,,0.00,VWS V14.01,2013-07-10 22:01:00,
2013-07-10 18:16:00,82.0,72.9,29.69,SSW,206,0.0,5.0,74,0.00,,,0.00,VWS V14.01,2013-07-10 22:16:00,
2013-07-10 18:31:00,81.5,72.8,29.69,SW,217,3.0,7.0,75,0.00,,,0.00,VWS V14.01,2013-07-10 22:31:00,
2013-07-10 18:46:00,81.3,72.6,29.68,West,273,0.0,6.0,75,0.00,,,0.00,VWS V14.01,2013-07-10 22:46:00,
2013-07-10 19:01:00,81.1,72.8,29.66,SW,219,5.0,10.0,76,0.00,,,0.00,VWS V14.01,2013-07-10 23:01:00,
2013-07-10 19:16:00,80.5,72.6,29.64,SSE,163,0.0,8.0,77,0.00,,,0.00,VWS V14.01,2013-07-10 23:16:00,
2013-07-10 19:31:00,80.3,72.8,29.69,SW,214,0.0,5.0,78,0.00,,,0.00,VWS V14.01,2013-07-10 23:31:00,
2013-07-10 19:46:00,80.0,72.9,29.69,West,275,2.0,3.0,79,0.00,,,0.00,VWS V14.01,2013-07-10 23:46:00,
2013-07-10 20:01:00,79.7,72.6,29.69,NW,314,3.0,8.0,79,0.00,,,0.00,VWS V14.01,2013-07-11 00:01:00,
2013-07-10 20:16:00,78.9,68.3,29.70,SSE,152,12.0,13.0,70,0.00,,,0.00,VWS V14.01,2013-07-11 00:16:00,
2013-07-10 20:31:00,77.6,66.2,29.71,SW,219,1.0,12.0,68,0.00,,,0.00,VWS V14.01,2013-07-11 00:31:00,
2013-07-10 20:46:00,76.4,65.9,29.72,SSW,198,4.0,13.0,70,0.00,,,0.00,VWS V14.01,2013-07-11 00:46:00,
2013-07-10 21:01:00,75.4,65.8,29.72,SSW,194,0.0,7.0,72,0.00,,,0.00,VWS V14.01,2013-07-11 01:01:00,
2013-07-10 21:16:00,74.8,66.0,29.72,NW,304,0.0,6.0,74,0.00,,,0.00,VWS V14.01,2013-07-11 01:16:00,
2013-07-10 21:31:00,74.5,66.1,29.73,SSW,204,0.0,5.0,75,0.00,,,0.00,VWS V14.01,2013-07-11 01:31:00,
2013-07-10 21:46:00,74.4,66.7,29.74,WSW,245,1.0,10.0,77,0.00,,,0.00,VWS V14.01,2013-07-11 01:46:00,
2013-07-10 22:01:00,74.3,66.6,29.74,SSW,200,1.0,10.0,77,0.00,,,0.00,VWS V14.01,2013-07-11 02:01:00,
2013-07-10 22:16:00,74.3,65.9,29.75,West,268,3.0,12.0,75,0.00,,,0.00,VWS V14.01,2013-07-11 02:16:00,
2013-07-10 22:31:00,74.3,65.5,29.75,South,185,0.0,13.0,74,0.00,,,0.00,VWS V14.01,2013-07-11 02:31:00,
2013-07-10 22:46:00,74.1,65.3,29.76,SW,234,6.0,9.0,74,0.00,,,0.00,VWS V14.01,2013-07-11 02:46:00,
2013-07-10 23:01:00,73.9,65.5,29.76,SSW,213,4.0,11.0,75,0.00,,,0.00,VWS V14.01,2013-07-11 03:01:00,
2013-07-10 23:16:00,73.9,65.5,29.77,WNW,294,5.0,14.0,75,0.00,,,0.00,VWS V14.01,2013-07-11 03:16:00,
2013-07-10 23:31:00,74.2,65.8,29.77,NW,309,5.0,14.0,75,0.00,,,0.00,VWS V14.01,2013-07-11 03:31:00,
2013-07-10 23:46:00,74.0,66.0,29.77,South,190,0.0,14.0,76,0.00,,,0.00,VWS V14.01,2013-07-11 03:46:00,